sensor_id;sensor_type;location;lat;lon;timestamp;temperature;humidity
65559;DHT22;52203;51.998;5.140;2023-02-04T00:01:43;8.04;118.99
65559;DHT22;52203;51.998;5.140;2023-02-04T00:04:11;8.03;118.99
65559;DHT22;52203;51.998;5.140;2023-02-04T00:06:37;8.04;118.99
65559;DHT22;52203;51.998;5.140;2023-02-04T00:09:02;8.04;118.99
65559;DHT22;52203;51.998;5.140;2023-02-04T00:11:28;8.03;118.99
65559;DHT22;52203;51.998;5.140;2023-02-04T00:13:54;8.05;118.99
65559;DHT22;52203;51.998;5.140;2023-02-04T00:16:19;8.04;118.99
65559;DHT22;52203;51.998;5.140;2023-02-04T00:18:45;8.05;118.99
65559;DHT22;52203;51.998;5.140;2023-02-04T00:21:10;8.05;118.99
65559;DHT22;52203;51.998;5.140;2023-02-04T00:23:36;8.04;118.99
65559;DHT22;52203;51.998;5.140;2023-02-04T00:26:02;8.04;118.99
65559;DHT22;52203;51.998;5.140;2023-02-04T00:28:27;8.03;118.99
65559;DHT22;52203;51.998;5.140;2023-02-04T00:30:53;8.02;118.99
65559;DHT22;52203;51.998;5.140;2023-02-04T00:33:19;8.03;118.99
65559;DHT22;52203;51.998;5.140;2023-02-04T00:35:44;8.03;118.99
65559;DHT22;52203;51.998;5.140;2023-02-04T00:38:10;8.01;118.99
65559;DHT22;52203;51.998;5.140;2023-02-04T00:40:36;8.02;118.99
65559;DHT22;52203;51.998;5.140;2023-02-04T00:43:02;8.02;118.99
65559;DHT22;52203;51.998;5.140;2023-02-04T00:45:27;8.00;118.99
65559;DHT22;52203;51.998;5.140;2023-02-04T00:47:53;8.02;118.99
65559;DHT22;52203;51.998;5.140;2023-02-04T00:50:18;8.01;118.99
65559;DHT22;52203;51.998;5.140;2023-02-04T00:52:44;8.00;118.99
65559;DHT22;52203;51.998;5.140;2023-02-04T00:55:10;8.00;118.99
65559;DHT22;52203;51.998;5.140;2023-02-04T00:57:37;8.01;118.99
65559;DHT22;52203;51.998;5.140;2023-02-04T01:00:04;8.00;118.99
65559;DHT22;52203;51.998;5.140;2023-02-04T01:02:30;8.00;118.99
65559;DHT22;52203;51.998;5.140;2023-02-04T01:04:56;7.99;118.99
65559;DHT22;52203;51.998;5.140;2023-02-04T01:07:22;7.99;118.99
65559;DHT22;52203;51.998;5.140;2023-02-04T01:09:48;8.00;118.99
65559;DHT22;52203;51.998;5.140;2023-02-04T01:12:13;7.99;118.99
65559;DHT22;52203;51.998;5.140;2023-02-04T01:14:39;7.99;118.99
65559;DHT22;52203;51.998;5.140;2023-02-04T01:17:05;7.99;118.99
65559;DHT22;52203;51.998;5.140;2023-02-04T01:19:31;7.98;118.99
65559;DHT22;52203;51.998;5.140;2023-02-04T01:21:56;7.98;118.99
65559;DHT22;52203;51.998;5.140;2023-02-04T01:24:22;7.97;118.99
65559;DHT22;52203;51.998;5.140;2023-02-04T01:26:47;7.98;118.99
65559;DHT22;52203;51.998;5.140;2023-02-04T01:29:13;7.97;118.99
65559;DHT22;52203;51.998;5.140;2023-02-04T01:31:38;7.97;118.99
65559;DHT22;52203;51.998;5.140;2023-02-04T01:34:04;7.97;118.99
65559;DHT22;52203;51.998;5.140;2023-02-04T01:36:30;7.96;118.99
65559;DHT22;52203;51.998;5.140;2023-02-04T01:38:55;7.98;118.99
65559;DHT22;52203;51.998;5.140;2023-02-04T01:41:22;7.97;118.99
65559;DHT22;52203;51.998;5.140;2023-02-04T01:43:48;7.97;118.99
65559;DHT22;52203;51.998;5.140;2023-02-04T01:46:14;7.96;118.99
65559;DHT22;52203;51.998;5.140;2023-02-04T01:48:40;7.98;118.99
65559;DHT22;52203;51.998;5.140;2023-02-04T01:51:12;7.97;118.99
65559;DHT22;52203;51.998;5.140;2023-02-04T01:53:39;7.97;118.99
65559;DHT22;52203;51.998;5.140;2023-02-04T01:56:17;7.98;118.99
65559;DHT22;52203;51.998;5.140;2023-02-04T01:58:44;7.96;118.99
65559;DHT22;52203;51.998;5.140;2023-02-04T02:03:58;7.99;118.99
65559;DHT22;52203;51.998;5.140;2023-02-04T02:06:23;7.93;118.99
65559;DHT22;52203;51.998;5.140;2023-02-04T02:08:49;7.88;118.99
65559;DHT22;52203;51.998;5.140;2023-02-04T02:11:15;7.84;118.99
65559;DHT22;52203;51.998;5.140;2023-02-04T02:13:40;7.79;118.99
65559;DHT22;52203;51.998;5.140;2023-02-04T02:16:06;7.77;118.99
65559;DHT22;52203;51.998;5.140;2023-02-04T02:18:32;7.73;118.99
65559;DHT22;52203;51.998;5.140;2023-02-04T02:20:59;7.70;118.99
65559;DHT22;52203;51.998;5.140;2023-02-04T02:23:48;7.69;118.99
65559;DHT22;52203;51.998;5.140;2023-02-04T02:26:15;7.65;118.99
65559;DHT22;52203;51.998;5.140;2023-02-04T02:28:42;7.63;118.99
65559;DHT22;52203;51.998;5.140;2023-02-04T02:31:08;7.63;118.99
65559;DHT22;52203;51.998;5.140;2023-02-04T02:33:34;7.60;118.99
65559;DHT22;52203;51.998;5.140;2023-02-04T02:36:00;7.58;118.99
65559;DHT22;52203;51.998;5.140;2023-02-04T02:38:26;7.56;118.99
65559;DHT22;52203;51.998;5.140;2023-02-04T02:40:52;7.56;118.99
65559;DHT22;52203;51.998;5.140;2023-02-04T02:43:21;7.56;118.99
65559;DHT22;52203;51.998;5.140;2023-02-04T02:45:47;7.55;118.99
65559;DHT22;52203;51.998;5.140;2023-02-04T02:48:13;7.53;118.99
65559;DHT22;52203;51.998;5.140;2023-02-04T02:50:39;7.52;118.99
65559;DHT22;52203;51.998;5.140;2023-02-04T02:53:13;7.50;118.99
65559;DHT22;52203;51.998;5.140;2023-02-04T02:55:40;7.49;118.99
65559;DHT22;52203;51.998;5.140;2023-02-04T02:58:25;7.48;118.99
65559;DHT22;52203;51.998;5.140;2023-02-04T03:00:52;7.47;118.99
65559;DHT22;52203;51.998;5.140;2023-02-04T03:03:27;7.48;118.99
65559;DHT22;52203;51.998;5.140;2023-02-04T03:05:58;7.46;118.99
65559;DHT22;52203;51.998;5.140;2023-02-04T03:08:25;7.45;118.99
65559;DHT22;52203;51.998;5.140;2023-02-04T03:10:51;7.44;118.99
65559;DHT22;52203;51.998;5.140;2023-02-04T03:13:17;7.43;118.99
65559;DHT22;52203;51.998;5.140;2023-02-04T03:15:44;7.43;118.99
65559;DHT22;52203;51.998;5.140;2023-02-04T03:18:12;7.42;118.99
65559;DHT22;52203;51.998;5.140;2023-02-04T03:20:40;7.42;118.99
65559;DHT22;52203;51.998;5.140;2023-02-04T03:23:05;7.41;118.99
65559;DHT22;52203;51.998;5.140;2023-02-04T03:25:31;7.40;118.99
65559;DHT22;52203;51.998;5.140;2023-02-04T03:27:57;7.40;118.99
65559;DHT22;52203;51.998;5.140;2023-02-04T03:30:24;7.40;118.99
65559;DHT22;52203;51.998;5.140;2023-02-04T03:32:50;7.39;118.99
65559;DHT22;52203;51.998;5.140;2023-02-04T03:35:16;7.38;118.99
65559;DHT22;52203;51.998;5.140;2023-02-04T03:37:42;7.38;118.99
65559;DHT22;52203;51.998;5.140;2023-02-04T03:40:08;7.37;118.99
65559;DHT22;52203;51.998;5.140;2023-02-04T03:42:34;7.37;118.99
65559;DHT22;52203;51.998;5.140;2023-02-04T03:45:00;7.37;118.99
65559;DHT22;52203;51.998;5.140;2023-02-04T03:47:26;7.35;118.99
65559;DHT22;52203;51.998;5.140;2023-02-04T03:49:51;7.35;118.99
65559;DHT22;52203;51.998;5.140;2023-02-04T03:52:17;7.34;118.99
65559;DHT22;52203;51.998;5.140;2023-02-04T03:54:44;7.33;118.99
65559;DHT22;52203;51.998;5.140;2023-02-04T03:57:10;7.33;118.99
65559;DHT22;52203;51.998;5.140;2023-02-04T03:59:36;7.32;118.99
65559;DHT22;52203;51.998;5.140;2023-02-04T04:02:02;7.31;118.99
65559;DHT22;52203;51.998;5.140;2023-02-04T04:04:27;7.30;118.99
65559;DHT22;52203;51.998;5.140;2023-02-04T04:06:53;7.30;118.99
65559;DHT22;52203;51.998;5.140;2023-02-04T04:09:18;7.30;118.99
65559;DHT22;52203;51.998;5.140;2023-02-04T04:11:44;7.30;118.99
65559;DHT22;52203;51.998;5.140;2023-02-04T04:14:09;7.28;118.99
65559;DHT22;52203;51.998;5.140;2023-02-04T04:16:35;7.28;118.99
65559;DHT22;52203;51.998;5.140;2023-02-04T04:19:01;7.27;118.99
65559;DHT22;52203;51.998;5.140;2023-02-04T04:21:26;7.28;118.99
65559;DHT22;52203;51.998;5.140;2023-02-04T04:23:52;7.27;118.99
65559;DHT22;52203;51.998;5.140;2023-02-04T04:26:17;7.25;118.99
65559;DHT22;52203;51.998;5.140;2023-02-04T04:28:43;7.27;118.99
65559;DHT22;52203;51.998;5.140;2023-02-04T04:31:08;7.24;118.99
65559;DHT22;52203;51.998;5.140;2023-02-04T04:33:34;7.25;118.99
65559;DHT22;52203;51.998;5.140;2023-02-04T04:36:00;7.24;118.99
65559;DHT22;52203;51.998;5.140;2023-02-04T04:38:25;7.25;118.99
65559;DHT22;52203;51.998;5.140;2023-02-04T04:40:51;7.24;118.99
65559;DHT22;52203;51.998;5.140;2023-02-04T04:43:16;7.24;118.99
65559;DHT22;52203;51.998;5.140;2023-02-04T04:45:42;7.23;118.99
65559;DHT22;52203;51.998;5.140;2023-02-04T04:48:07;7.22;118.99
65559;DHT22;52203;51.998;5.140;2023-02-04T04:50:33;7.22;118.99
65559;DHT22;52203;51.998;5.140;2023-02-04T04:52:59;7.22;118.99
65559;DHT22;52203;51.998;5.140;2023-02-04T04:55:24;7.20;118.99
65559;DHT22;52203;51.998;5.140;2023-02-04T04:57:50;7.22;118.99
65559;DHT22;52203;51.998;5.140;2023-02-04T05:00:18;7.23;118.99
65559;DHT22;52203;51.998;5.140;2023-02-04T05:02:44;7.27;118.99
65559;DHT22;52203;51.998;5.140;2023-02-04T05:05:10;7.31;118.99
65559;DHT22;52203;51.998;5.140;2023-02-04T05:07:36;7.33;118.99
65559;DHT22;52203;51.998;5.140;2023-02-04T05:10:02;7.32;118.99
65559;DHT22;52203;51.998;5.140;2023-02-04T05:12:28;7.32;118.99
65559;DHT22;52203;51.998;5.140;2023-02-04T05:14:53;7.31;118.99
65559;DHT22;52203;51.998;5.140;2023-02-04T05:17:19;7.32;118.99
65559;DHT22;52203;51.998;5.140;2023-02-04T05:19:45;7.33;118.99
65559;DHT22;52203;51.998;5.140;2023-02-04T05:22:10;7.34;118.99
65559;DHT22;52203;51.998;5.140;2023-02-04T05:24:36;7.35;118.99
65559;DHT22;52203;51.998;5.140;2023-02-04T05:27:01;7.35;118.99
65559;DHT22;52203;51.998;5.140;2023-02-04T05:29:27;7.38;118.99
65559;DHT22;52203;51.998;5.140;2023-02-04T05:31:52;7.39;118.99
65559;DHT22;52203;51.998;5.140;2023-02-04T05:34:18;7.41;118.99
65559;DHT22;52203;51.998;5.140;2023-02-04T05:36:44;7.41;118.99
65559;DHT22;52203;51.998;5.140;2023-02-04T05:39:09;7.42;118.99
65559;DHT22;52203;51.998;5.140;2023-02-04T05:41:35;7.42;118.99
65559;DHT22;52203;51.998;5.140;2023-02-04T05:44:01;7.41;118.99
65559;DHT22;52203;51.998;5.140;2023-02-04T05:46:26;7.42;118.99
65559;DHT22;52203;51.998;5.140;2023-02-04T05:48:52;7.42;118.99
65559;DHT22;52203;51.998;5.140;2023-02-04T05:51:17;7.42;118.99
65559;DHT22;52203;51.998;5.140;2023-02-04T05:53:43;7.44;118.99
65559;DHT22;52203;51.998;5.140;2023-02-04T05:56:08;7.42;118.99
65559;DHT22;52203;51.998;5.140;2023-02-04T05:58:34;7.42;118.99
65559;DHT22;52203;51.998;5.140;2023-02-04T06:01:00;7.41;118.99
65559;DHT22;52203;51.998;5.140;2023-02-04T06:03:26;7.42;118.99
65559;DHT22;52203;51.998;5.140;2023-02-04T06:05:52;7.43;118.99
65559;DHT22;52203;51.998;5.140;2023-02-04T06:08:18;7.44;118.99
65559;DHT22;52203;51.998;5.140;2023-02-04T06:10:43;7.43;118.99
65559;DHT22;52203;51.998;5.140;2023-02-04T06:13:09;7.43;118.99
65559;DHT22;52203;51.998;5.140;2023-02-04T06:15:35;7.46;118.99
65559;DHT22;52203;51.998;5.140;2023-02-04T06:18:01;7.47;118.99
65559;DHT22;52203;51.998;5.140;2023-02-04T06:20:26;7.46;118.99
65559;DHT22;52203;51.998;5.140;2023-02-04T06:22:52;7.47;118.99
65559;DHT22;52203;51.998;5.140;2023-02-04T06:25:19;7.47;118.99
65559;DHT22;52203;51.998;5.140;2023-02-04T06:27:45;7.46;118.99
65559;DHT22;52203;51.998;5.140;2023-02-04T06:30:11;7.47;118.99
65559;DHT22;52203;51.998;5.140;2023-02-04T06:32:37;7.49;118.99
65559;DHT22;52203;51.998;5.140;2023-02-04T06:35:02;7.48;118.99
65559;DHT22;52203;51.998;5.140;2023-02-04T06:37:28;7.50;118.99
65559;DHT22;52203;51.998;5.140;2023-02-04T06:39:54;7.50;118.99
65559;DHT22;52203;51.998;5.140;2023-02-04T06:42:22;7.50;118.99
65559;DHT22;52203;51.998;5.140;2023-02-04T06:44:48;7.50;118.99
65559;DHT22;52203;51.998;5.140;2023-02-04T06:47:13;7.52;118.99
65559;DHT22;52203;51.998;5.140;2023-02-04T06:49:39;7.53;118.99
65559;DHT22;52203;51.998;5.140;2023-02-04T06:52:04;7.54;118.99
65559;DHT22;52203;51.998;5.140;2023-02-04T06:54:30;7.53;118.99
65559;DHT22;52203;51.998;5.140;2023-02-04T06:56:56;7.53;118.99
65559;DHT22;52203;51.998;5.140;2023-02-04T06:59:28;7.53;118.99
65559;DHT22;52203;51.998;5.140;2023-02-04T07:01:56;7.53;118.99
65559;DHT22;52203;51.998;5.140;2023-02-04T07:04:22;7.54;118.99
65559;DHT22;52203;51.998;5.140;2023-02-04T07:06:47;7.55;118.99
65559;DHT22;52203;51.998;5.140;2023-02-04T07:09:13;7.54;118.99
65559;DHT22;52203;51.998;5.140;2023-02-04T07:11:39;7.55;118.99
65559;DHT22;52203;51.998;5.140;2023-02-04T07:14:04;7.54;118.99
65559;DHT22;52203;51.998;5.140;2023-02-04T07:16:30;7.57;118.99
65559;DHT22;52203;51.998;5.140;2023-02-04T07:18:55;7.57;118.99
65559;DHT22;52203;51.998;5.140;2023-02-04T07:21:21;7.56;118.99
65559;DHT22;52203;51.998;5.140;2023-02-04T07:23:46;7.56;118.99
65559;DHT22;52203;51.998;5.140;2023-02-04T07:26:12;7.56;118.99
65559;DHT22;52203;51.998;5.140;2023-02-04T07:28:37;7.58;118.99
65559;DHT22;52203;51.998;5.140;2023-02-04T07:31:05;7.60;118.99
65559;DHT22;52203;51.998;5.140;2023-02-04T07:33:31;7.59;118.99
65559;DHT22;52203;51.998;5.140;2023-02-04T07:35:56;7.61;118.99
65559;DHT22;52203;51.998;5.140;2023-02-04T07:38:22;7.62;118.99
65559;DHT22;52203;51.998;5.140;2023-02-04T07:40:47;7.64;118.99
65559;DHT22;52203;51.998;5.140;2023-02-04T07:43:14;7.64;118.99
65559;DHT22;52203;51.998;5.140;2023-02-04T07:45:40;7.63;118.99
65559;DHT22;52203;51.998;5.140;2023-02-04T07:48:05;7.65;118.99
65559;DHT22;52203;51.998;5.140;2023-02-04T07:50:31;7.65;118.99
65559;DHT22;52203;51.998;5.140;2023-02-04T07:52:57;7.67;118.99
65559;DHT22;52203;51.998;5.140;2023-02-04T07:55:23;7.67;118.99
65559;DHT22;52203;51.998;5.140;2023-02-04T07:57:49;7.67;118.99
65559;DHT22;52203;51.998;5.140;2023-02-04T08:00:15;7.67;118.99
65559;DHT22;52203;51.998;5.140;2023-02-04T08:02:41;7.68;118.99
65559;DHT22;52203;51.998;5.140;2023-02-04T08:05:07;7.69;118.99
65559;DHT22;52203;51.998;5.140;2023-02-04T08:07:33;7.68;118.99
65559;DHT22;52203;51.998;5.140;2023-02-04T08:09:58;7.68;118.99
65559;DHT22;52203;51.998;5.140;2023-02-04T08:12:24;7.67;118.99
65559;DHT22;52203;51.998;5.140;2023-02-04T08:14:50;7.68;118.99
65559;DHT22;52203;51.998;5.140;2023-02-04T08:17:15;7.68;118.99
65559;DHT22;52203;51.998;5.140;2023-02-04T08:19:41;7.70;118.99
65559;DHT22;52203;51.998;5.140;2023-02-04T08:22:06;7.69;118.99
65559;DHT22;52203;51.998;5.140;2023-02-04T08:24:32;7.70;118.99
65559;DHT22;52203;51.998;5.140;2023-02-04T08:26:57;7.70;118.99
65559;DHT22;52203;51.998;5.140;2023-02-04T08:29:23;7.70;118.99
65559;DHT22;52203;51.998;5.140;2023-02-04T08:31:50;7.70;118.99
65559;DHT22;52203;51.998;5.140;2023-02-04T08:34:16;7.69;118.99
65559;DHT22;52203;51.998;5.140;2023-02-04T08:36:41;7.70;118.99
65559;DHT22;52203;51.998;5.140;2023-02-04T08:39:09;7.69;118.99
65559;DHT22;52203;51.998;5.140;2023-02-04T08:41:34;7.69;118.99
65559;DHT22;52203;51.998;5.140;2023-02-04T08:44:00;7.70;118.99
65559;DHT22;52203;51.998;5.140;2023-02-04T08:46:26;7.70;118.99
65559;DHT22;52203;51.998;5.140;2023-02-04T08:48:52;7.70;118.99
65559;DHT22;52203;51.998;5.140;2023-02-04T08:51:17;7.70;118.99
65559;DHT22;52203;51.998;5.140;2023-02-04T08:53:43;7.71;118.99
65559;DHT22;52203;51.998;5.140;2023-02-04T08:56:09;7.70;118.99
65559;DHT22;52203;51.998;5.140;2023-02-04T08:58:35;7.71;118.99
65559;DHT22;52203;51.998;5.140;2023-02-04T09:01:00;7.72;118.99
65559;DHT22;52203;51.998;5.140;2023-02-04T09:03:26;7.71;118.99
65559;DHT22;52203;51.998;5.140;2023-02-04T09:05:51;7.72;118.99
65559;DHT22;52203;51.998;5.140;2023-02-04T09:08:17;7.73;118.99
65559;DHT22;52203;51.998;5.140;2023-02-04T09:10:43;7.73;118.99
65559;DHT22;52203;51.998;5.140;2023-02-04T09:13:08;7.73;118.99
65559;DHT22;52203;51.998;5.140;2023-02-04T09:15:36;7.72;118.99
65559;DHT22;52203;51.998;5.140;2023-02-04T09:18:01;7.72;118.99
65559;DHT22;52203;51.998;5.140;2023-02-04T09:20:36;7.72;118.99
65559;DHT22;52203;51.998;5.140;2023-02-04T09:23:03;7.71;118.99
65559;DHT22;52203;51.998;5.140;2023-02-04T09:25:33;7.71;118.99
65559;DHT22;52203;51.998;5.140;2023-02-04T09:27:59;7.72;118.99
65559;DHT22;52203;51.998;5.140;2023-02-04T09:30:24;7.72;118.99
65559;DHT22;52203;51.998;5.140;2023-02-04T09:32:50;7.68;118.99
65559;DHT22;52203;51.998;5.140;2023-02-04T09:35:16;7.69;118.99
65559;DHT22;52203;51.998;5.140;2023-02-04T09:37:41;7.73;118.99
65559;DHT22;52203;51.998;5.140;2023-02-04T09:40:12;7.73;118.99
65559;DHT22;52203;51.998;5.140;2023-02-04T09:42:38;7.73;118.99
65559;DHT22;52203;51.998;5.140;2023-02-04T09:45:04;7.74;118.99
65559;DHT22;52203;51.998;5.140;2023-02-04T09:47:30;7.74;118.99
65559;DHT22;52203;51.998;5.140;2023-02-04T09:49:56;7.75;118.99
65559;DHT22;52203;51.998;5.140;2023-02-04T09:52:22;7.74;118.99
65559;DHT22;52203;51.998;5.140;2023-02-04T09:54:49;7.75;118.99
65559;DHT22;52203;51.998;5.140;2023-02-04T09:57:18;7.75;118.99
65559;DHT22;52203;51.998;5.140;2023-02-04T09:59:44;7.77;118.99
65559;DHT22;52203;51.998;5.140;2023-02-04T10:02:28;7.78;118.99
65559;DHT22;52203;51.998;5.140;2023-02-04T10:04:55;7.81;118.99
65559;DHT22;52203;51.998;5.140;2023-02-04T10:07:22;7.79;118.99
65559;DHT22;52203;51.998;5.140;2023-02-04T10:09:51;7.79;118.99
65559;DHT22;52203;51.998;5.140;2023-02-04T10:12:17;7.79;118.99
65559;DHT22;52203;51.998;5.140;2023-02-04T10:14:56;7.79;118.99
65559;DHT22;52203;51.998;5.140;2023-02-04T10:17:24;7.83;118.99
65559;DHT22;52203;51.998;5.140;2023-02-04T10:19:50;7.82;118.99
65559;DHT22;52203;51.998;5.140;2023-02-04T10:22:18;7.83;118.99
65559;DHT22;52203;51.998;5.140;2023-02-04T10:24:45;7.83;118.99
65559;DHT22;52203;51.998;5.140;2023-02-04T10:27:11;7.84;118.99
65559;DHT22;52203;51.998;5.140;2023-02-04T10:29:40;7.82;118.99
65559;DHT22;52203;51.998;5.140;2023-02-04T10:32:25;7.83;118.99
65559;DHT22;52203;51.998;5.140;2023-02-04T10:34:56;7.81;118.99
65559;DHT22;52203;51.998;5.140;2023-02-04T10:37:22;7.79;118.99
65559;DHT22;52203;51.998;5.140;2023-02-04T10:39:48;7.78;118.99
65559;DHT22;52203;51.998;5.140;2023-02-04T10:42:25;7.76;118.99
65559;DHT22;52203;51.998;5.140;2023-02-04T10:44:51;7.75;118.99
65559;DHT22;52203;51.998;5.140;2023-02-04T10:47:19;7.75;118.99
65559;DHT22;52203;51.998;5.140;2023-02-04T10:49:59;7.74;118.99
65559;DHT22;52203;51.998;5.140;2023-02-04T10:52:42;7.74;118.99
65559;DHT22;52203;51.998;5.140;2023-02-04T10:55:21;7.73;118.99
65559;DHT22;52203;51.998;5.140;2023-02-04T10:57:48;7.73;118.99
65559;DHT22;52203;51.998;5.140;2023-02-04T11:05:24;7.70;118.99
65559;DHT22;52203;51.998;5.140;2023-02-04T11:07:50;7.72;118.99
65559;DHT22;52203;51.998;5.140;2023-02-04T11:10:19;7.71;118.99
65559;DHT22;52203;51.998;5.140;2023-02-04T11:15:40;7.69;118.99
65559;DHT22;52203;51.998;5.140;2023-02-04T11:18:08;7.70;118.99
65559;DHT22;52203;51.998;5.140;2023-02-04T11:20:35;7.68;118.99
65559;DHT22;52203;51.998;5.140;2023-02-04T11:26:13;7.69;118.99
65559;DHT22;52203;51.998;5.140;2023-02-04T11:28:54;7.72;118.99
65559;DHT22;52203;51.998;5.140;2023-02-04T11:33:46;7.72;118.99
65559;DHT22;52203;51.998;5.140;2023-02-04T11:36:14;7.71;118.99
65559;DHT22;52203;51.998;5.140;2023-02-04T11:38:46;7.71;118.99
65559;DHT22;52203;51.998;5.140;2023-02-04T11:41:27;7.71;118.99
65559;DHT22;52203;51.998;5.140;2023-02-04T11:43:55;7.70;118.99
65559;DHT22;52203;51.998;5.140;2023-02-04T11:46:22;7.70;118.99
65559;DHT22;52203;51.998;5.140;2023-02-04T11:48:53;7.68;118.99
65559;DHT22;52203;51.998;5.140;2023-02-04T11:51:22;7.68;118.99
65559;DHT22;52203;51.998;5.140;2023-02-04T11:53:51;7.67;118.99
65559;DHT22;52203;51.998;5.140;2023-02-04T11:56:18;7.65;118.99
65559;DHT22;52203;51.998;5.140;2023-02-04T11:58:44;7.68;118.99
65559;DHT22;52203;51.998;5.140;2023-02-04T12:01:23;7.69;118.99
65559;DHT22;52203;51.998;5.140;2023-02-04T12:04:04;7.69;118.99
65559;DHT22;52203;51.998;5.140;2023-02-04T12:06:35;7.69;118.99
65559;DHT22;52203;51.998;5.140;2023-02-04T12:09:06;7.69;118.99
65559;DHT22;52203;51.998;5.140;2023-02-04T12:11:32;7.69;118.99
65559;DHT22;52203;51.998;5.140;2023-02-04T12:14:06;7.68;118.99
65559;DHT22;52203;51.998;5.140;2023-02-04T12:16:49;7.69;118.99
65559;DHT22;52203;51.998;5.140;2023-02-04T12:19:18;7.71;118.99
65559;DHT22;52203;51.998;5.140;2023-02-04T12:21:44;7.71;118.99
65559;DHT22;52203;51.998;5.140;2023-02-04T12:24:09;7.71;118.99
65559;DHT22;52203;51.998;5.140;2023-02-04T12:26:35;7.70;118.99
65559;DHT22;52203;51.998;5.140;2023-02-04T12:29:00;7.70;118.99
65559;DHT22;52203;51.998;5.140;2023-02-04T12:31:32;7.70;118.99
65559;DHT22;52203;51.998;5.140;2023-02-04T12:33:58;7.70;118.99
65559;DHT22;52203;51.998;5.140;2023-02-04T12:36:24;7.69;118.99
65559;DHT22;52203;51.998;5.140;2023-02-04T12:38:52;7.71;118.99
65559;DHT22;52203;51.998;5.140;2023-02-04T12:41:18;7.69;118.99
65559;DHT22;52203;51.998;5.140;2023-02-04T12:43:44;7.68;118.99
65559;DHT22;52203;51.998;5.140;2023-02-04T12:46:10;7.69;118.99
65559;DHT22;52203;51.998;5.140;2023-02-04T12:48:36;7.70;118.99
65559;DHT22;52203;51.998;5.140;2023-02-04T12:51:05;7.71;118.99
65559;DHT22;52203;51.998;5.140;2023-02-04T12:53:31;7.70;118.99
65559;DHT22;52203;51.998;5.140;2023-02-04T12:55:56;7.71;118.99
65559;DHT22;52203;51.998;5.140;2023-02-04T12:58:22;7.70;118.99
65559;DHT22;52203;51.998;5.140;2023-02-04T13:00:48;7.70;118.99
65559;DHT22;52203;51.998;5.140;2023-02-04T13:03:13;7.70;118.99
65559;DHT22;52203;51.998;5.140;2023-02-04T13:05:39;7.71;118.99
65559;DHT22;52203;51.998;5.140;2023-02-04T13:08:05;7.72;118.99
65559;DHT22;52203;51.998;5.140;2023-02-04T13:10:37;7.72;118.99
65559;DHT22;52203;51.998;5.140;2023-02-04T13:13:03;7.75;118.99
65559;DHT22;52203;51.998;5.140;2023-02-04T13:15:28;7.76;118.99
65559;DHT22;52203;51.998;5.140;2023-02-04T13:17:54;7.76;118.99
65559;DHT22;52203;51.998;5.140;2023-02-04T13:20:20;7.78;118.99
65559;DHT22;52203;51.998;5.140;2023-02-04T13:22:45;7.82;118.99
65559;DHT22;52203;51.998;5.140;2023-02-04T13:25:11;7.82;118.99
65559;DHT22;52203;51.998;5.140;2023-02-04T13:27:37;7.81;118.99
65559;DHT22;52203;51.998;5.140;2023-02-04T13:30:04;7.84;118.99
65559;DHT22;52203;51.998;5.140;2023-02-04T13:32:30;7.85;118.99
65559;DHT22;52203;51.998;5.140;2023-02-04T13:34:56;7.86;118.99
65559;DHT22;52203;51.998;5.140;2023-02-04T13:37:21;7.87;118.99
65559;DHT22;52203;51.998;5.140;2023-02-04T13:39:47;7.89;118.99
65559;DHT22;52203;51.998;5.140;2023-02-04T13:42:12;7.90;118.99
65559;DHT22;52203;51.998;5.140;2023-02-04T13:44:38;7.87;118.99
65559;DHT22;52203;51.998;5.140;2023-02-04T13:47:04;7.89;118.99
65559;DHT22;52203;51.998;5.140;2023-02-04T13:49:29;7.93;118.99
65559;DHT22;52203;51.998;5.140;2023-02-04T13:51:55;7.93;118.99
65559;DHT22;52203;51.998;5.140;2023-02-04T13:54:20;7.92;118.99
65559;DHT22;52203;51.998;5.140;2023-02-04T13:56:46;7.91;118.99
65559;DHT22;52203;51.998;5.140;2023-02-04T13:59:11;7.92;118.99
65559;DHT22;52203;51.998;5.140;2023-02-04T14:01:37;7.91;118.99
65559;DHT22;52203;51.998;5.140;2023-02-04T14:04:03;7.93;118.99
65559;DHT22;52203;51.998;5.140;2023-02-04T14:06:28;7.92;118.99
65559;DHT22;52203;51.998;5.140;2023-02-04T14:08:59;7.93;118.99
65559;DHT22;52203;51.998;5.140;2023-02-04T14:11:25;7.98;118.99
65559;DHT22;52203;51.998;5.140;2023-02-04T14:13:50;7.96;118.99
65559;DHT22;52203;51.998;5.140;2023-02-04T14:16:16;7.99;118.99
65559;DHT22;52203;51.998;5.140;2023-02-04T14:18:41;8.00;118.99
65559;DHT22;52203;51.998;5.140;2023-02-04T14:21:07;8.00;118.99
65559;DHT22;52203;51.998;5.140;2023-02-04T14:23:33;7.97;118.99
65559;DHT22;52203;51.998;5.140;2023-02-04T14:25:58;7.93;118.99
65559;DHT22;52203;51.998;5.140;2023-02-04T14:28:31;7.98;118.99
65559;DHT22;52203;51.998;5.140;2023-02-04T14:30:59;8.02;118.99
65559;DHT22;52203;51.998;5.140;2023-02-04T14:33:24;8.08;118.99
65559;DHT22;52203;51.998;5.140;2023-02-04T14:35:50;8.17;118.99
65559;DHT22;52203;51.998;5.140;2023-02-04T14:38:15;8.27;118.99
65559;DHT22;52203;51.998;5.140;2023-02-04T14:40:43;8.39;118.99
65559;DHT22;52203;51.998;5.140;2023-02-04T14:43:09;8.51;118.99
65559;DHT22;52203;51.998;5.140;2023-02-04T14:45:36;8.63;118.99
65559;DHT22;52203;51.998;5.140;2023-02-04T14:48:08;8.74;118.99
65559;DHT22;52203;51.998;5.140;2023-02-04T14:50:36;8.82;118.99
65559;DHT22;52203;51.998;5.140;2023-02-04T14:53:02;8.90;118.99
65559;DHT22;52203;51.998;5.140;2023-02-04T14:55:35;9.02;118.99
65559;DHT22;52203;51.998;5.140;2023-02-04T14:58:04;9.03;118.99
65559;DHT22;52203;51.998;5.140;2023-02-04T15:00:30;9.20;118.99
65559;DHT22;52203;51.998;5.140;2023-02-04T15:03:03;9.26;118.99
65559;DHT22;52203;51.998;5.140;2023-02-04T15:05:33;9.27;118.99
65559;DHT22;52203;51.998;5.140;2023-02-04T15:07:58;9.39;118.99
65559;DHT22;52203;51.998;5.140;2023-02-04T15:10:24;9.39;118.99
65559;DHT22;52203;51.998;5.140;2023-02-04T15:12:53;9.42;118.99
65559;DHT22;52203;51.998;5.140;2023-02-04T15:15:19;9.47;118.99
65559;DHT22;52203;51.998;5.140;2023-02-04T15:17:45;9.49;118.99
65559;DHT22;52203;51.998;5.140;2023-02-04T15:20:19;9.52;118.99
65559;DHT22;52203;51.998;5.140;2023-02-04T15:22:49;9.61;118.99
65559;DHT22;52203;51.998;5.140;2023-02-04T15:25:17;9.63;118.99
65559;DHT22;52203;51.998;5.140;2023-02-04T15:27:51;9.66;118.99
65559;DHT22;52203;51.998;5.140;2023-02-04T15:30:20;9.66;118.99
65559;DHT22;52203;51.998;5.140;2023-02-04T15:32:46;9.71;118.99
65559;DHT22;52203;51.998;5.140;2023-02-04T15:35:12;9.72;118.99
65559;DHT22;52203;51.998;5.140;2023-02-04T15:37:38;9.70;118.99
65559;DHT22;52203;51.998;5.140;2023-02-04T15:40:04;9.78;118.99
65559;DHT22;52203;51.998;5.140;2023-02-04T15:42:30;9.74;118.99
65559;DHT22;52203;51.998;5.140;2023-02-04T15:45:03;9.81;118.99